Woonsocket, Rhode Island
Current Conditions -  °F | °C
As of 9:15 PM on Monday 22 Dec 2014 (Local Time) from KSFZ Reporting Station
Overcast Overcast  
Wind Chill: 36°   Ceiling: 4900
Heat Index: 39°   Visibility: 10mi
Dew Point: 32°   Wind: 5mph
Humidity: 75%   Direction: 70°ENE
Pressure: 30.28"   Gusts: NA
Location:  42°N, 71.51°W
Report Text: KSFZ 230215Z 07004KT 10SM OVC049 04/00 A3028 RMK AO1
Loading
Personal Weather Stations






























Interactive Weather Map New forecast layout! Learn more

10-Day Weather Forecast

Advertisements
Track Severe Weather on mobile